Home > Products > Valid Products > MTR

000
SAUS43 KMQT 270254
MTRP59
METAR KP59 270251Z AUTO 03019G27KT M06/M09 A3022 RMK AO1 PK WND
03027/0243 SLP250 T10611089 51007





000
SAUS43 KMQT 270157
MTRP53
METAR KP53 270156Z AUTO 00000KT M05/M08 A3013 RMK AO1 SLP215
T10501083





000
SAUS43 KMQT 270154
MTRP59
METAR KP59 270151Z AUTO 04017G24KT M06/M08 A3021 RMK AO1 PK WND
03027/0121 SLP248 T10561083





000
SAUS43 KMQT 270057
MTRP53
METAR KP53 270056Z AUTO 14003KT M04/M08 A3014 RMK AO1 SLP221
T10441083





000
SAUS43 KMQT 270054
MTRP59
METAR KP59 270051Z AUTO 04017G26KT M04/M07 A3021 RMK AO1 PK WND
05026/0047 SLP245 T10441072





000
SAUS43 KMQT 262357
MTRP53
METAR KP53 262356Z AUTO 21004KT M03/M09 A3015 RMK AO1 SLP223
T10331089 11017 21039 50004





000
SAUS43 KMQT 262354
MTRP59
METAR KP59 262351Z AUTO 05019G24KT M04/M07 A3020 RMK AO1 SLP242
60002 T10441067 11022 21044 51015





000
SAUS43 KMQT 262258
MTRP53
METAR KP53 262256Z AUTO 21003KT M03/M09 A3016 RMK AO1 SLP226
T10331089





000
SAUS43 KMQT 262253
MTRP59
METAR KP59 262251Z AUTO 05015KT M04/M06 A3018 RMK AO1 SLP238 P0001
T10391061





000
SAUS43 KMQT 262157
MTRP53
METAR KP53 262156Z AUTO 20003KT M03/M08 A3014 RMK AO1 SLP221
T10281078





000
SAUS43 KMQT 262157
MTRP53
METAR KP53 262156Z AUTO 20003KT M03/M08 A3014 RMK AO1 SLP221
T10281078





000
SAUS43 KMQT 262154
MTRP59
METAR KP59 262151Z AUTO 06016KT M03/M07 A3017 RMK AO1 SLP233
T10331067





000
SAUS43 KMQT 262154
MTRP59
METAR KP59 262151Z AUTO 06016KT M03/M07 A3017 RMK AO1 SLP233
T10331067





000
SAUS43 KMQT 262057
MTRP53
METAR KP53 262056Z AUTO 16005KT M02/M08 A3014 RMK AO1 SLP218
T10221083 55004





000
SAUS43 KMQT 262054
MTRP59
METAR KP59 262051Z AUTO 05019G25KT M03/M06 A3015 RMK AO1 PK WND
06027/2001 SLP225 60001 T10331061 53010





000
SAUS43 KMQT 261958
MTRP53
METAR KP53 261956Z AUTO VRB04KT M02/M08 A3013 RMK AO1 SLP215
T10171083





000
SAUS43 KMQT 261954
MTRP59
METAR KP59 261951Z AUTO 06020KT M03/M04 A3014 RMK AO1 PK WND
08030/1935 WSHFT 1932 SLP219 T10281044





000
SAUS43 KMQT 261857
MTRP53
METAR KP53 261856Z AUTO 16006KT M02/M08 A3014 RMK AO1 SLP217
T10221083





000
SAUS43 KMQT 261852
MTRP59
METAR KP59 261851Z AUTO 22007KT M03/M07 A3012 RMK AO1 SLP214 P0001
T10331072





000
SAUS43 KMQT 261757
MTRP53
METAR KP53 261756Z AUTO 17005KT M02/M09 A3015 RMK AO1 SLP222
T10221089 11022 21161 58004





000
SAUS43 KMQT 261753
MTRP59
METAR KP59 261751Z AUTO 23005KT M04/M09 A3012 RMK AO1 SLP215
T10441094 11039 21061 50002





000
SAUS43 KMQT 261657
MTRP53
METAR KP53 261656Z AUTO 16003KT M03/M09 A3016 RMK AO1 SLP227
T10331094





000
SAUS43 KMQT 261654
MTRP59
METAR KP59 261651Z AUTO 25007KT M04/M11 A3013 RMK AO1 SLP219
T10391111





000
SAUS43 KMQT 261557
MTRP53
METAR KP53 261556Z AUTO 18004KT M06/M10 A3017 RMK AO1 SLP229
T10561100





000
SAUS43 KMQT 261552
MTRP59
METAR KP59 261551Z AUTO 24005KT M04/M10 A3013 RMK AO1 SLP219
T10441100





000
SAUS43 KMQT 261457
MTRP53
METAR KP53 261456Z AUTO 17007KT M11/M14 A3016 RMK AO1 SLP228
T11111144 53004





000
SAUS43 KMQT 261453
MTRP59
METAR KP59 261451Z AUTO 25007KT M05/M08 A3011 RMK AO1 SLP214
T10501083 53003





000
SAUS43 KMQT 261357
MTRP53
METAR KP53 261356Z AUTO 19004KT M14/M18 A3016 RMK AO1 SLP228
T11441178





000
SAUS43 KMQT 261354
MTRP59
METAR KP59 261351Z AUTO 23007KT M05/M11 A3011 RMK AO1 SLP212
T10501111





000
SAUS43 KMQT 261257
MTRP53
METAR KP53 261256Z AUTO 19005KT M15/M18 A3015 RMK AO1 SLP224
T11501183





000
SAUS43 KMQT 261253
MTRP59
METAR KP59 261251Z AUTO 24007KT M06/M11 A3011 RMK AO1 SLP213
T10561106





000
SAUS43 KMQT 261157
MTRP53
METAR KP53 261156Z AUTO 18007KT M14/M18 A3015 RMK AO1 SLP224 70009
T11441178 11122 21156 58000





000
SAUS43 KMQT 261154
MTRP59
METAR KP59 261151Z AUTO 24006KT M06/M10 A3010 RMK AO1 SLP213
T10611100 11039 21061 58003





000
SAUS43 KMQT 261057
MTRP53
METAR KP53 261056Z AUTO 19006KT M14/M17 A3016 RMK AO1 SLP225
T11441172





000
SAUS43 KMQT 261054
MTRP59
METAR KP59 261051Z AUTO 24006KT M06/M10 A3011 RMK AO1 SLP214
T10611100





000
SAUS43 KMQT 260957
MTRP53
METAR KP53 260956Z AUTO 18006KT M15/M18 A3016 RMK AO1 SLP226
T11501178





000
SAUS43 KMQT 260957
MTRP53
METAR KP53 260956Z AUTO 18006KT M15/M18 A3016 RMK AO1 SLP226
T11501178





000
SAUS43 KMQT 260953
MTRP59
METAR KP59 260951Z AUTO 24005KT M06/M10 A3011 RMK AO1 SLP215
T10561100





000
SAUS43 KMQT 260953
MTRP59
METAR KP59 260951Z AUTO 24005KT M06/M10 A3011 RMK AO1 SLP215
T10561100





000
SAUS43 KMQT 260857
MTRP53
METAR KP53 260856Z AUTO 18007KT M14/M18 A3015 RMK AO1 SLP223
T11441178 50003





000
SAUS43 KMQT 260854
MTRP59
METAR KP59 260851Z AUTO 24006KT M05/M10 A3011 RMK AO1 SLP214
T10501100 53006





000
SAUS43 KMQT 260757
MTRP53
METAR KP53 260756Z AUTO 18007KT M14/M17 A3017 RMK AO1 SLP229
T11441172





000
SAUS43 KMQT 260754
MTRP59
METAR KP59 260751Z AUTO 23006KT M04/M10 A3011 RMK AO1 SLP211
T10441100





000
SAUS43 KMQT 260657
MTRP53
METAR KP53 260656Z AUTO 18008KT M14/M17 A3015 RMK AO1 SLP224
T11391167





000
SAUS43 KMQT 260652
MTRP59
METAR KP59 260651Z AUTO 24006KT M04/M10 A3010 RMK AO1 SLP207
T10441100





000
SAUS43 KMQT 260557
MTRP53
METAR KP53 260556Z AUTO 18009KT M13/M16 A3014 RMK AO1 SLP220
T11281156 11056 21128 51015





000
SAUS43 KMQT 260552
MTRP59
METAR KP59 260551Z AUTO 25006KT M04/M11 A3010 RMK AO1 SLP207
T10441106 11044 21089 53015





000
SAUS43 KMQT 260457
MTRP53
METAR KP53 260456Z AUTO 18008KT M12/M16 A3014 RMK AO1 SLP219
T11221156 410111128





000
SAUS43 KMQT 260454
MTRP59
METAR KP59 260451Z AUTO 25006KT M05/M11 A3008 RMK AO1 SLP200
T10501106 410221089





000
SAUS43 KMQT 260357
MTRP53
METAR KP53 260356Z AUTO 18008KT M12/M14 A3012 RMK AO1 SLP211
T11171144





000
SAUS43 KMQT 260357
MTRP53
METAR KP53 260356Z AUTO 18008KT M12/M14 A3012 RMK AO1 SLP211
T11171144





000
SAUS43 KMQT 260354
MTRP59
METAR KP59 260351Z AUTO 26007G15KT M05/M09 A3006 RMK AO1 SLP196
T10501094





000
SAUS43 KMQT 260354
MTRP59
METAR KP59 260351Z AUTO 26007G15KT M05/M09 A3006 RMK AO1 SLP196
T10501094





000
SAUS43 KMQT 260257
MTRP53
METAR KP53 260256Z AUTO 18008KT M11/M13 A3010 RMK AO1 SLP204
T11061133 51016





000
SAUS43 KMQT 260253
MTRP59
METAR KP59 260251Z AUTO 25006KT M06/M10 A3005 RMK AO1 SLP192
T10561100 51013





000
SAUS43 KMQT 260157
MTRP53
METAR KP53 260156Z AUTO 18006KT M09/M12 A3009 RMK AO1 SLP200
T10941122





000
SAUS43 KMQT 260152
MTRP59
METAR KP59 260151Z AUTO VRB05KT M08/M11 A3004 RMK AO1 SLP188
T10781111





000
SAUS43 KMQT 260057
MTRP53
METAR KP53 260056Z AUTO 22005KT M06/M11 A3007 RMK AO1 SLP194
T10611111





000
SAUS43 KMQT 260053
MTRP59
METAR KP59 260051Z AUTO 25005KT M08/M12 A3003 RMK AO1 SLP187
T10831117





000
SAUS43 KMQT 252357
MTRP53
METAR KP53 252356Z AUTO 22005KT M06/M11 A3005 RMK AO1 SLP187 60002
T10561106 11011 21056 51021





000
SAUS43 KMQT 252353
MTRP59
METAR KP59 252351Z AUTO 25006KT M08/M12 A3001 RMK AO1 SLP181
T10831117 11033 21089 51012





000
SAUS43 KMQT 252258
MTRP53
METAR KP53 252256Z AUTO 25003KT M04/M11 A3004 RMK AO1 SLP181
T10391106





000
SAUS43 KMQT 252253
MTRP59
METAR KP59 252251Z AUTO 25004KT M07/M12 A3001 RMK AO1 SLP177
T10721117





000
SAUS43 KMQT 252157
MTRP53
METAR KP53 252156Z AUTO 28004KT M03/M09 A3001 RMK AO1 SLP172
T10281094





000
SAUS43 KMQT 252157
MTRP53
METAR KP53 252156Z AUTO 28004KT M03/M09 A3001 RMK AO1 SLP172
T10281094





000
SAUS43 KMQT 252154
MTRP59
METAR KP59 252151Z AUTO VRB03KT M06/M12 A3000 RMK AO1 SLP175
T10561117





000
SAUS43 KMQT 252154
MTRP59
METAR KP59 252151Z AUTO VRB03KT M06/M12 A3000 RMK AO1 SLP175
T10561117





000
SAUS43 KMQT 252057
MTRP53
METAR KP53 252056Z AUTO 30009G14KT M02/M08 A2999 RMK AO1 SLP165
P0001 60002 T10221083 53026





000
SAUS43 KMQT 252052
MTRP59
METAR KP59 252051Z AUTO VRB06KT M06/M11 A2998 RMK AO1 SLP166
T10561111 53017





000
SAUS43 KMQT 251957
MTRP53
METAR KP53 251956Z AUTO 28006KT M03/M07 A2996 RMK AO1 SLP154 P0001
T10281067





000
SAUS43 KMQT 251954
MTRP59
METAR KP59 251951Z AUTO 33009G15KT M04/M09 A2996 RMK AO1 SLP159
T10441094





000
SAUS43 KMQT 251857
MTRP53
METAR KP53 251856Z AUTO 32009KT M02/M08 A2993 RMK AO1 SLP144
T10171078





000
SAUS43 KMQT 251852
MTRP59
METAR KP59 251851Z AUTO 35013G20KT M03/M08 A2994 RMK AO1 SLP153
T10331078





000
SAUS43 KMQT 251757
MTRP53
METAR KP53 251756Z AUTO 31009G16KT M02/M08 A2991 RMK AO1 SLP137
60007 T10171078 11011 21022 51029





000
SAUS43 KMQT 251753
MTRP59
METAR KP59 251751Z AUTO 35013KT M03/M07 A2993 RMK AO1 SLP148
T10331072 11033 21039 51023





000
SAUS43 KMQT 251657
MTRP53
METAR KP53 251656Z AUTO 32013KT M02/M06 A2988 RMK AO1 SLP128
T10171061





000
SAUS43 KMQT 251657
MTRP53
METAR KP53 251656Z AUTO 32013KT M02/M06 A2988 RMK AO1 SLP128
T10171061





000
SAUS43 KMQT 251653
MTRP59
METAR KP59 251651Z AUTO 01014KT M04/M08 A2991 RMK AO1 SLP143
T10391083





000
SAUS43 KMQT 251653
MTRP59
METAR KP59 251651Z AUTO 01014KT M04/M08 A2991 RMK AO1 SLP143
T10391083





000
SAUS43 KMQT 251557
MTRP53
METAR KP53 251556Z AUTO 35013KT M01/M06 A2985 RMK AO1 SLP118
T10111056





000
SAUS43 KMQT 251554
MTRP59
METAR KP59 251551Z AUTO 02014KT M04/M08 A2989 RMK AO1 SLP135
T10391083





000
SAUS43 KMQT 251457
MTRP53
METAR KP53 251456Z AUTO 35014KT M01/M06 A2982 RMK AO1 SLP107 P0002
60007 T10111056 51031





000
SAUS43 KMQT 251453
MTRP59
METAR KP59 251451Z AUTO 02016KT M04/M08 A2986 RMK AO1 SLP125
T10391078 51023





000
SAUS43 KMQT 251357
MTRP53
METAR KP53 251356Z AUTO 35011KT M01/M05 A2979 RMK AO1 SLP097 P0001
T10111050





000
SAUS43 KMQT 251352
MTRP59
METAR KP59 251351Z AUTO 02016G24KT M04/M08 A2984 RMK AO1 SLP120
T10391083





000
SAUS43 KMQT 251257
MTRP53
METAR KP53 251256Z AUTO 35013G21KT M02/M04 A2976 RMK AO1 SLP086
P0004 T10171044





000
SAUS43 KMQT 251252
MTRP59
METAR KP59 251251Z AUTO 01019G25KT M04/M08 A2981 RMK AO1 PK WND
02026/1205 SLP109 T10391078





000
SAUS43 KMQT 251157
MTRP53
METAR KP53 251156Z AUTO 35014KT M02/M04 A2973 RMK AO1 SLP075 P0003
60020 70045 T10171044 11011 21022 53031





000
SAUS43 KMQT 251152
MTRP59
METAR KP59 251151Z AUTO 01019G26KT M03/M07 A2979 RMK AO1 PK WND
03026/1148 SLP100 60002 70006 T10331067 11022 21033 53029





000
SAUS43 KMQT 251057
MTRP53
METAR KP53 251056Z AUTO 36014KT M02/M04 A2970 RMK AO1 SLP064 P0002
T10171044





000
SAUS43 KMQT 251057
MTRP53
METAR KP53 251056Z AUTO 36014KT M02/M04 A2970 RMK AO1 SLP064 P0002
T10171044





000
SAUS43 KMQT 251053
MTRP59
METAR KP59 251051Z AUTO 03020G27KT M03/M07 A2976 RMK AO1 PK WND
02030/1028 SLP090 T10331067





000
SAUS43 KMQT 251053
MTRP59
METAR KP59 251051Z AUTO 03020G27KT M03/M07 A2976 RMK AO1 PK WND
02030/1028 SLP090 T10331067





000
SAUS43 KMQT 250957
MTRP53
METAR KP53 250956Z AUTO 35015G23KT M02/M04 A2966 RMK AO1 SLP052
P0005 T10171044





000
SAUS43 KMQT 250954
MTRP59
METAR KP59 250951Z AUTO 03022G30KT M03/M06 A2972 RMK AO1 PK WND
04030/0951 SLP077 T10281061





000
SAUS43 KMQT 250857
MTRP53
METAR KP53 250856Z AUTO 36016KT M02/M04 A2963 RMK AO1 SLP043 P0004
60010 T10171044 53037





000
SAUS43 KMQT 250853
MTRP59
METAR KP59 250851Z AUTO 04017G26KT M03/M06 A2970 RMK AO1 PK WND
03029/0806 SLP070 60002 T10281056 53027





000
SAUS43 KMQT 250803 COR
MTRP53
METAR KP53 250756Z AUTO 36018G22KT M01/M04 A2959 RMK AO1 SLP029
P0003 T10111039





000
SAUS43 KMQT 250757 COR
MTRP59
METAR KP59 250751Z AUTO 04020G28KT M03/M06 A2967 RMK AO1 PK WND
02033/0710 SLP061 P0002 T10281056





000
SAUS43 KMQT 250754
MTRP59
METAR KP59 250751Z AUTO 04020G28KT M03/M06 A2967 RMK AO1 PK WND
02033/0710 SLP061 P0002 T10281056





000
SAUS43 KMQT 250657
MTRP53
METAR KP53 250656Z AUTO 36018G25KT M01/M04 A2956 RMK AO1 PK WND
35027/0604 SLP017 P0003 T10111039





000
SAUS43 KMQT 250654
MTRP59
METAR KP59 250651Z AUTO 03022G28KT M02/M05 A2964 RMK AO1 PK WND
03029/0633 SLP048 T10221050





000
SAUS43 KMQT 250557
MTRP53
METAR KP53 250556Z AUTO 36020G26KT M01/M04 A2952 RMK AO1 PK WND
35026/0553 SLP005 P0001 60011 T10111039 10006 21011 51037





000
SAUS43 KMQT 250554
MTRP59
METAR KP59 250551Z AUTO 04019G28KT M03/M05 A2962 RMK AO1 PK WND
05030/0536 SLP043 T10281050 11017 21028 51037





000
SAUS43 KMQT 250457
MTRP53
METAR KP53 250456Z AUTO 35019G24KT M01/M04 A2949 RMK AO1 SLP992
P0002 T10111039 400671011





000
SAUS43 KMQT 250454
MTRP59
METAR KP59 250451Z AUTO 04021G30KT M03/M05 A2959 RMK AO1 PK WND
05031/0352 SLP033 T10281050 400611028





000
SAUS43 KMQT 250357
MTRP53
METAR KP53 250356Z AUTO 35017KT M01/M04 A2945 RMK AO1 PK WND
35027/0335 SLP981 P0003 T10111039





000
SAUS43 KMQT 250357
MTRP53
METAR KP53 250356Z AUTO 35017KT M01/M04 A2945 RMK AO1 PK WND
35027/0335 SLP981 P0003 T10111039





000
SAUS43 KMQT 250352
MTRP59
METAR KP59 250351Z AUTO 04022G29KT M03/M05 A2955 RMK AO1 PK WND
04033/0303 SLP020 T10281050





000
SAUS43 KMQT 250258
MTRP53
METAR KP53 250256Z AUTO 35016G27KT M01/M03 A2941 RMK AO1 PK WND
33027/0249 SLP966 P0002 60005 T10061033 53042





000
SAUS43 KMQT 250252
MTRP59
METAR KP59 250251Z AUTO 04024G33KT M02/M04 A2951 RMK AO1 PK WND
03033/0250 SLP003 T10221044 53037





000
SAUS43 KMQT 250157
MTRP53
METAR KP53 250156Z AUTO 35016G25KT M01/M03 A2937 RMK AO1 PK WND
35029/0123 SLP952 P0003 T10061033





000
SAUS43 KMQT 250154
MTRP59
METAR KP59 250151Z AUTO 04024G37KT M02/M05 A2946 RMK AO1 PK WND
03037/0142 SLP985 T10171050





000
SAUS43 KMQT 250057
MTRP53
METAR KP53 250056Z AUTO 35023G29KT 00/M03 A2932 RMK AO1 PK WND
36032/0010 SLP936 T00001033





000
SAUS43 KMQT 250054
MTRP59
METAR KP59 250051Z AUTO 04022G32KT M02/M04 A2943 RMK AO1 PK WND
03034/0008 SLP976 T10171044





000
SAUS43 KMQT 250005 COR
MTRP53
METAR KP53 242356Z AUTO 35022G30KT 01/M03 A2929 RMK AO1 PK WND
35031/2306 SLP923 P0002 60002 T00061028 10022 20000 53035





000
SAUS43 KMQT 250004 COR
MTRP53
METAR KP53 242356Z AUTO 35022G30KT 01/M03 A2929 RMK AO1 PK WND
35031/2306 SLP923 P0002 60002 T00061028 10022 20000 53035





000
SAUS43 KMQT 250003 COR
MTRP53
METAR KP53 242356Z AUTO 35022G30KT 01/M03 A2929 RMK AO1 PK WND
35031/2306 SLP923 P0002 60002 T00061028 10022 20000 53035





000
SAUS43 KMQT 242359 COR
MTRP53
METAR KP53 242356Z AUTO 35022G30KT 01/M03 A2929 RMK AO1 PK WND
35031/2306 SLP923 P0002 60002 T00061028 10022 20000 53035





000
SAUS43 KMQT 242358 COR
MTRP53
METAR KP53 242356Z AUTO 35022G30KT 01/M03 A2929 RMK AO1 PK WND
35031/2306 SLP923 P0002 60002 T00061028 10022 20000 53035





000
SAUS43 KMQT 242357
MTRP53
METAR KP53 242356Z AUTO 35022G30KT 01/M03 A2929 RMK AO1 PK WND
35031/2306 SLP923 P0002 60002 T00061028 10022 20000 53035





000
SAUS43 KMQT 242352
MTRP59
METAR KP59 242351Z AUTO 04023G32KT M02/M04 A2940 RMK AO1 PK WND
03034/2306 SLP964 T10171044 11006 21017 51046





000
SAUS43 KMQT 242257
MTRP53
METAR KP53 242256Z AUTO 35020KT 01/M02 A2925 RMK AO1 PK WND
01032/2243 SLP911 T00061022





000
SAUS43 KMQT 242254
MTRP59
METAR KP59 242251Z AUTO 04022G33KT M02/M04 A2936 RMK AO1 PK WND
03033/2157 SLP950 T10171039





000
SAUS43 KMQT 242157
MTRP53
METAR KP53 242156Z AUTO 35019G34KT 01/M02 A2922 RMK AO1 PK WND
35034/2147 SLP899 T00061022





000
SAUS43 KMQT 242154
MTRP59
METAR KP59 242151Z AUTO 04021G31KT M02/M04 A2931 RMK AO1 PK WND
03033/2117 SLP935 T10171039





000
SAUS43 KMQT 242154
MTRP59
METAR KP59 242151Z AUTO 04021G31KT M02/M04 A2931 RMK AO1 PK WND
03033/2117 SLP935 T10171039





000
SAUS43 KMQT 242057
MTRP53
METAR KP53 242056Z AUTO 34019G27KT 01/M02 A2918 RMK AO1 PK WND
33027/2050 SLP888 T00061022 53038





000
SAUS43 KMQT 242052
MTRP59
METAR KP59 242051Z AUTO 04020G30KT M02/M03 A2926 RMK AO1 PK WND
03033/2002 PRESRR SLP917 T10171033 52037





000
SAUS43 KMQT 241957
MTRP53
METAR KP53 241956Z AUTO 34016G26KT 01/M02 A2914 RMK AO1 PK WND
33028/1946 SLP874 T00111022





000
SAUS43 KMQT 241954
MTRP59
METAR KP59 241951Z AUTO 04022G32KT M02/M04 A2922 RMK AO1 PK WND
03032/1947 SLP902 T10171039





000
SAUS43 KMQT 241954
MTRP59
METAR KP59 241951Z AUTO 04022G32KT M02/M04 A2922 RMK AO1 PK WND
03032/1947 SLP902 T10171039





000
SAUS43 KMQT 241857
MTRP53
METAR KP53 241856Z AUTO 33018G26KT 02/M01 A2911 RMK AO1 PK WND
35030/1838 SLP861 T00171011





000
SAUS43 KMQT 241854
MTRP59
METAR KP59 241851Z AUTO 03023G29KT M01/M03 A2919 RMK AO1 PK WND
03031/1817 SLP893 T10111033





000
SAUS43 KMQT 241803 COR
MTRP53
METAR KP53 241756Z AUTO 34022G31KT 02/M01 A2907 RMK AO1 PK WND
34031/1754 SLP848 P0001 60012 T00221006 10056 20022 51030





000
SAUS43 KMQT 241759 COR
MTRP53
METAR KP53 241756Z AUTO 34022G31KT 02/M01 A2907 RMK AO1 PK WND
34031/1754 SLP848 P0001 60012 T00221006 10056 20022 51030





000
SAUS43 KMQT 241758 COR
MTRP53
METAR KP53 241756Z AUTO 34022G31KT 02/M01 A2907 RMK AO1 PK WND
34031/1754 SLP848 P0001 60012 T00221006 10056 20022 51030





000
SAUS43 KMQT 241757
MTRP53
METAR KP53 241756Z AUTO 34022G31KT 02/M01 A2907 RMK AO1 PK WND
34031/1754 SLP848 P0001 60012 T00221006 10056 20022 51030





000
SAUS43 KMQT 241753
MTRP59
METAR KP59 241751Z AUTO 04020G32KT M01/M03 A2915 RMK AO1 PK WND
03032/1746 SLP878 P0001 60004 T10111033 10039 21011 51019





000
SAUS43 KMQT 241657
MTRP53
METAR KP53 241656Z AUTO 34013G25KT 03/01 A2905 RMK AO1 PK WND
33028/1633 SLP842 P0002 T00280006





000
SAUS43 KMQT 241652
MTRP59
METAR KP59 241651Z AUTO 02023G28KT M01/M03 A2914 RMK AO1 PK WND
03031/1555 SLP877 P0001 T10111028





000
SAUS43 KMQT 241557
MTRP53
METAR KP53 241556Z AUTO 32018G25KT 04/02 A2902 RMK AO1 SLP832 P0001
T00390022





000
SAUS43 KMQT 241554
MTRP59
METAR KP59 241551Z AUTO 03023G30KT M01/M02 A2912 RMK AO1 PK WND
01030/1548 SLP868 T10061022





000
SAUS43 KMQT 241458
MTRP53
METAR KP53 241456Z AUTO 33009KT 05/04 A2898 RMK AO1 SLP816 P0002
60008 T00500039 53012





000
SAUS43 KMQT 241454
MTRP59
METAR KP59 241451Z AUTO 03022G30KT 01/M01 A2909 RMK AO1 PK WND
03030/1443 SLP858 60002 T00061011 53017





000
SAUS43 KMQT 241357
MTRP53
METAR KP53 241356Z AUTO 31010KT 06/04 A2896 RMK AO1 SLP809 P0002
T00560039





000
SAUS43 KMQT 241354
MTRP59
METAR KP59 241351Z AUTO 04017G27KT 02/00 A2907 RMK AO1 PK WND
03028/1335 SLP852 P0002 T00170000





000
SAUS43 KMQT 241257
MTRP53
METAR KP53 241256Z AUTO 31011KT 06/04 A2895 RMK AO1 SLP806 P0004
T00560039





000
SAUS43 KMQT 241254
MTRP59
METAR KP59 241251Z AUTO 04018G26KT 03/02 A2906 RMK AO1 PK WND
05029/1153 SLP845 T00280017





000
SAUS43 KMQT 241157
MTRP53
METAR KP53 241156Z AUTO 00000KT 03/02 A2894 RMK AO1 SLP805 P0002
60035 70052 T00330017 10067 20028 56030





000
SAUS43 KMQT 241154
MTRP59
METAR KP59 241151Z AUTO 05019G28KT 04/03 A2904 RMK AO1 PK WND
05028/1142 SLP838 P0004 60021 70023 T00390028 10050 20039 56017





000
SAUS43 KMQT 241057
MTRP53
METAR KP53 241056Z AUTO 20003KT 03/02 A2895 RMK AO1 SLP810 P0005
T00330022





000
SAUS43 KMQT 241054
MTRP59
METAR KP59 241051Z AUTO 03011KT 05/04 A2905 RMK AO1 SLP840 P0006
T00500039





000
SAUS43 KMQT 240957
MTRP53
METAR KP53 240956Z AUTO 00000KT 03/02 A2899 RMK AO1 SLP821 P0007
T00330017





000
SAUS43 KMQT 240952
MTRP59
METAR KP59 240951Z AUTO 06007KT 05/04 A2906 RMK AO1 SLP847 P0005
T00500039





000
SAUS43 KMQT 240952
MTRP59
METAR KP59 240951Z AUTO 06007KT 05/04 A2906 RMK AO1 SLP847 P0005
T00500039





000
SAUS43 KMQT 240857
MTRP53
METAR KP53 240856Z AUTO 00000KT 05/03 A2903 RMK AO1 SLP835 P0010
60021 T00500033 56049





000
SAUS43 KMQT 240853
MTRP59
METAR KP59 240851Z AUTO 09004KT 05/04 A2909 RMK AO1 SLP856 P0002
60006 T00500039 56038





000
SAUS43 KMQT 240803 COR
MTRP53
METAR KP53 240756Z AUTO 30003KT 04/03 A2908 RMK AO1 SLP851 P0007
T00440033





000
SAUS43 KMQT 240754
MTRP59
METAR KP59 240751Z AUTO 09003KT 05/04 A2911 RMK AO1 SLP863 P0002
T00500044





000
SAUS43 KMQT 240657
MTRP53
METAR KP53 240656Z AUTO 32003KT 05/03 A2912 RMK AO1 SLP864 P0004
T00500033





000
SAUS43 KMQT 240653
MTRP59
METAR KP59 240651Z AUTO 00000KT 05/04 A2915 RMK AO1 SLP876 P0002
T00500039





000
SAUS43 KMQT 240557
MTRP53
METAR KP53 240556Z AUTO 00000KT 06/05 A2918 RMK AO1 SLP884 P0002
60016 T00610050 10067 20056 58055





000
SAUS43 KMQT 240554
MTRP59
METAR KP59 240551Z AUTO 00000KT 06/04 A2921 RMK AO1 SLP894 P0001
60002 T00560044 10067 20056 58035





000
SAUS43 KMQT 240458
MTRP53
METAR KP53 240456Z AUTO 00000KT 06/05 A2924 RMK AO1 SLP904 P0002
T00610050 400890006





000
SAUS43 KMQT 240453
MTRP59
METAR KP59 240451Z AUTO VRB03KT 06/04 A2925 RMK AO1 SLP909 P0001
T00560044 400830022





000
SAUS43 KMQT 240357
MTRP53
METAR KP53 240356Z AUTO VRB03KT 07/05 A2929 RMK AO1 SLP922 P0003
T00670050





000
SAUS43 KMQT 240352
MTRP59
METAR KP59 240351Z AUTO 23006KT 06/04 A2928 RMK AO1 SLP921 T00560044





000
SAUS43 KMQT 240257
MTRP53
METAR KP53 240256Z AUTO VRB05KT 06/04 A2934 RMK AO1 SLP940 P0003
60009 T00610044 58032





    US Dept of Commerce
    National Oceanic and Atmospheric Administration
    National Weather Service
    1325 East West Highway
    Silver Spring, MD 20910
    Page Author: NWS Internet Services Team
Disclaimer
Information Quality
Credits
Glossary
Privacy Policy
Freedom of Information Act (FOIA)
About Us
Career Opportunities